Time;durP1;ratioP1;P1;durP2;ratioP2;P2;SDS_P1;SDS_P2;PMS_P1;PMS_P2;Temp;Humidity;BMP_temperature;BMP_pressure;BME280_temperature;BME280_humidity;BME280_pressure;Samples;Min_cycle;Max_cycle;Signal;HPM_P1;HPM_P2
2022/12/20 00:01:25;;;;;;;52.60;27.02;;;4.00;61.70;;;;;;5035753;28;20095;-72
2022/12/20 00:03:52;;;;;;;53.40;27.20;;;4.00;61.50;;;;;;5051495;28;20389;-72
2022/12/20 00:06:19;;;;;;;55.28;27.67;;;4.00;61.50;;;;;;5032750;28;20127;-72
2022/12/20 00:08:45;;;;;;;54.55;28.77;;;4.10;61.50;;;;;;5041212;28;20116;-72
2022/12/20 00:11:14;;;;;;;54.08;27.48;;;4.10;61.40;;;;;;5049475;28;20029;-72
2022/12/20 00:13:45;;;;;;;56.95;28.20;;;4.10;61.40;;;;;;5017231;28;20029;-72
2022/12/20 00:16:17;;;;;;;54.65;27.88;;;4.10;61.30;;;;;;5033499;28;20033;-72
2022/12/20 00:18:43;;;;;;;55.08;27.75;;;4.20;61.40;;;;;;5015631;28;20511;-72
2022/12/20 00:21:13;;;;;;;57.53;27.65;;;4.10;61.30;;;;;;5015952;28;20046;-72
2022/12/20 00:23:42;;;;;;;61.42;29.02;;;4.20;61.50;;;;;;5015807;28;20133;-72
2022/12/20 00:26:12;;;;;;;62.45;28.73;;;4.20;61.60;;;;;;5033273;28;20041;-72
2022/12/20 00:28:39;;;;;;;57.70;28.20;;;4.20;61.60;;;;;;5024142;28;20100;-73
2022/12/20 00:31:06;;;;;;;57.95;27.65;;;4.30;61.60;;;;;;5035310;28;20033;-73
2022/12/20 00:33:36;;;;;;;59.80;30.02;;;4.30;61.60;;;;;;5051812;28;20473;-72
2022/12/20 00:36:06;;;;;;;60.38;28.63;;;4.30;61.60;;;;;;5052254;28;20032;-72
2022/12/20 00:38:32;;;;;;;63.20;28.67;;;4.40;61.50;;;;;;5053484;28;20086;-72
2022/12/20 00:41:06;;;;;;;64.70;31.20;;;4.40;61.40;;;;;;5035290;28;20029;-72
2022/12/20 00:43:33;;;;;;;59.13;28.85;;;4.40;61.40;;;;;;5039929;28;20100;-72
2022/12/20 00:45:59;;;;;;;61.90;27.75;;;4.40;61.30;;;;;;5052986;28;20090;-73
2022/12/20 00:48:26;;;;;;;60.42;27.55;;;4.50;61.20;;;;;;5034171;28;20072;-72
2022/12/20 00:50:56;;;;;;;57.22;27.98;;;4.50;61.20;;;;;;5035157;28;20045;-72
2022/12/20 00:53:22;;;;;;;67.28;30.95;;;4.50;61.10;;;;;;5047309;28;20030;-72
2022/12/20 00:55:53;;;;;;;62.80;30.55;;;4.50;61.00;;;;;;5015326;28;20041;-73
2022/12/20 00:58:18;;;;;;;64.85;30.98;;;4.50;61.10;;;;;;5033173;28;20038;-72
2022/12/20 01:00:45;;;;;;;62.03;30.55;;;4.60;61.10;;;;;;5020081;28;20032;-72
2022/12/20 01:03:10;;;;;;;56.97;28.02;;;4.60;61.00;;;;;;5030045;28;20508;-72
2022/12/20 01:05:36;;;;;;;57.33;28.63;;;4.60;61.00;;;;;;4995595;28;20038;-72
2022/12/20 01:08:03;;;;;;;67.68;31.20;;;4.60;60.90;;;;;;4995540;28;20073;-72
2022/12/20 01:10:33;;;;;;;59.50;29.67;;;4.60;60.90;;;;;;5024846;28;20037;-73
2022/12/20 01:13:04;;;;;;;65.78;31.85;;;4.60;61.00;;;;;;5021154;28;20037;-72
2022/12/20 01:15:33;;;;;;;64.00;30.58;;;4.60;60.90;;;;;;5015613;28;20037;-72
2022/12/20 01:17:58;;;;;;;63.83;31.98;;;4.60;60.80;;;;;;5015129;28;20044;-72
2022/12/20 01:20:24;;;;;;;64.18;31.38;;;4.60;60.80;;;;;;5015125;28;20034;-72
2022/12/20 01:22:50;;;;;;;62.50;31.38;;;4.60;60.80;;;;;;5031995;28;20045;-72
2022/12/20 01:25:16;;;;;;;61.65;29.92;;;4.60;60.90;;;;;;4995748;28;20038;-72
2022/12/20 01:27:41;;;;;;;63.28;29.52;;;4.60;60.90;;;;;;5011748;28;20501;-72
2022/12/20 01:30:08;;;;;;;61.15;29.45;;;4.50;60.80;;;;;;5012772;28;20482;-72
2022/12/20 01:32:37;;;;;;;56.60;27.88;;;4.60;60.80;;;;;;4995323;28;20497;-72
2022/12/20 01:35:03;;;;;;;57.53;29.25;;;4.60;60.70;;;;;;4995624;28;20042;-73
2022/12/20 01:37:30;;;;;;;60.85;28.65;;;4.60;60.80;;;;;;5023166;28;20385;-72
2022/12/20 01:39:56;;;;;;;61.65;29.08;;;4.60;60.70;;;;;;4998910;28;20374;-72
2022/12/20 01:42:24;;;;;;;60.00;29.27;;;4.60;60.70;;;;;;5016184;28;20037;-74
2022/12/20 01:44:54;;;;;;;53.67;27.52;;;4.60;60.60;;;;;;5001166;28;20540;-73
2022/12/20 01:47:21;;;;;;;53.80;27.38;;;4.60;60.60;;;;;;5016067;28;20081;-72
2022/12/20 01:49:51;;;;;;;59.60;28.58;;;4.50;60.50;;;;;;4998654;28;20045;-72
2022/12/20 01:52:34;;;;;;;56.65;27.27;;;4.50;60.50;;;;;;4998645;28;20038;-73
2022/12/20 01:55:25;;;;;;;61.10;28.17;;;4.50;60.40;;;;;;4998643;28;20061;-72
2022/12/20 01:58:02;;;;;;;55.20;26.33;;;4.50;60.40;;;;;;5014976;28;20390;-72
2022/12/20 02:00:30;;;;;;;59.97;27.83;;;4.50;60.30;;;;;;4998379;28;20065;-72
2022/12/20 02:03:02;;;;;;;53.88;27.45;;;4.50;60.30;;;;;;4998070;28;20564;-72
2022/12/20 02:05:38;;;;;;;60.30;29.20;;;4.40;60.20;;;;;;5018095;28;20030;-72
2022/12/20 02:08:06;;;;;;;46.78;23.02;;;4.40;60.10;;;;;;5035643;28;20045;-72
2022/12/20 02:11:00;;;;;;;57.83;27.10;;;4.40;60.20;;;;;;5035682;28;20077;-72
2022/12/20 02:13:31;;;;;;;54.67;27.55;;;4.40;60.30;;;;;;5022196;28;20038;-72
2022/12/20 02:15:59;;;;;;;64.95;30.48;;;4.30;60.30;;;;;;4998149;28;20375;-72
2022/12/20 02:18:38;;;;;;;63.92;28.80;;;4.30;60.40;;;;;;5015484;28;20477;-73
2022/12/20 02:21:12;;;;;;;55.17;27.75;;;4.30;60.50;;;;;;4998113;28;20397;-73
2022/12/20 02:23:50;;;;;;;65.22;31.05;;;4.30;60.60;;;;;;4998100;28;20041;-72
2022/12/20 02:26:31;;;;;;;57.72;28.02;;;4.30;60.70;;;;;;5008070;28;20481;-72
2022/12/20 02:29:12;;;;;;;63.10;27.70;;;4.30;60.80;;;;;;5003286;28;20041;-72
2022/12/20 02:32:21;;;;;;;56.78;28.38;;;4.30;60.80;;;;;;4999498;28;20552;-73
2022/12/20 02:34:48;;;;;;;63.30;30.48;;;4.30;60.90;;;;;;4995523;28;20063;-72
2022/12/20 02:37:13;;;;;;;61.60;29.42;;;4.30;60.80;;;;;;5016402;28;20034;-72
2022/12/20 02:39:43;;;;;;;58.40;29.02;;;4.30;60.80;;;;;;5014832;28;20037;-72
2022/12/20 02:42:12;;;;;;;58.10;28.02;;;4.30;60.80;;;;;;5014032;28;20085;-73
2022/12/20 02:47:38;;;;;;;58.22;27.73;;;4.30;60.80;;;;;;5031736;28;20044;-72
2022/12/20 02:50:07;;;;;;;60.08;28.63;;;4.30;60.80;;;;;;5034129;28;20033;-72
2022/12/20 02:52:34;;;;;;;58.03;29.27;;;4.30;60.80;;;;;;5033520;28;20041;-72
2022/12/20 02:55:02;;;;;;;56.13;27.75;;;4.20;60.70;;;;;;4999014;28;20054;-72
2022/12/20 02:57:42;;;;;;;53.10;26.35;;;4.20;60.80;;;;;;5006194;28;20034;-73
2022/12/20 03:00:13;;;;;;;54.00;25.92;;;4.20;60.80;;;;;;5014842;28;20034;-72
2022/12/20 03:05:26;;;;;;;62.75;30.20;;;4.20;60.90;;;;;;5014879;28;20103;-72
2022/12/20 03:07:53;;;;;;;65.35;29.52;;;4.20;60.80;;;;;;4997381;28;20100;-72
2022/12/20 03:10:22;;;;;;;60.53;28.63;;;4.20;60.80;;;;;;4997373;28;20091;-72
2022/12/20 03:12:50;;;;;;;64.88;31.27;;;4.20;60.90;;;;;;4997218;28;20367;-72
2022/12/20 03:15:19;;;;;;;67.53;30.10;;;4.20;60.90;;;;;;5013613;28;20497;-72
2022/12/20 03:17:44;;;;;;;59.17;27.73;;;4.20;60.90;;;;;;5014791;28;20041;-72
2022/12/20 03:20:10;;;;;;;60.50;29.55;;;4.20;61.00;;;;;;5013521;28;20041;-72
2022/12/20 03:22:37;;;;;;;61.97;28.80;;;4.20;61.10;;;;;;5014463;28;20766;-72
2022/12/20 03:25:03;;;;;;;68.63;30.98;;;4.20;61.10;;;;;;5034379;28;20037;-72
2022/12/20 03:27:29;;;;;;;64.15;29.55;;;4.20;61.10;;;;;;5034015;28;20405;-72
2022/12/20 03:29:55;;;;;;;57.28;28.13;;;4.20;61.10;;;;;;5016512;28;20038;-72
2022/12/20 03:32:21;;;;;;;60.65;27.85;;;4.20;61.10;;;;;;5034569;28;20033;-72
2022/12/20 03:34:47;;;;;;;58.47;29.27;;;4.20;61.20;;;;;;5016834;28;20037;-72
2022/12/20 03:37:16;;;;;;;59.47;29.60;;;4.20;61.20;;;;;;5012503;28;20033;-72
2022/12/20 03:39:42;;;;;;;64.85;31.05;;;4.20;61.20;;;;;;5014105;28;20042;-72
2022/12/20 03:42:08;;;;;;;63.33;30.48;;;4.20;61.10;;;;;;4996435;28;20030;-72
2022/12/20 03:44:37;;;;;;;61.58;28.23;;;4.20;61.00;;;;;;5013035;28;20044;-72
2022/12/20 03:47:03;;;;;;;54.78;26.73;;;4.30;61.10;;;;;;5012960;28;20132;-72
2022/12/20 03:49:29;;;;;;;65.10;29.02;;;4.30;61.10;;;;;;4996641;28;20379;-72
2022/12/20 03:51:55;;;;;;;61.40;29.52;;;4.30;61.10;;;;;;4996512;28;20036;-73
2022/12/20 03:54:21;;;;;;;63.08;30.38;;;4.30;61.20;;;;;;5012632;28;20042;-73
2022/12/20 03:56:50;;;;;;;60.75;28.85;;;4.30;61.10;;;;;;5014354;28;20375;-72
2022/12/20 03:59:18;;;;;;;64.55;29.77;;;4.30;61.20;;;;;;5012099;28;20040;-72
2022/12/20 04:01:44;;;;;;;63.58;30.77;;;4.40;61.30;;;;;;5014071;28;20041;-73
2022/12/20 04:04:15;;;;;;;60.17;29.05;;;4.40;61.40;;;;;;5007238;28;20061;-72
2022/12/20 04:06:44;;;;;;;59.90;30.08;;;4.40;61.30;;;;;;5015972;28;20041;-72
2022/12/20 04:09:12;;;;;;;62.75;28.85;;;4.40;61.30;;;;;;5015872;28;20038;-72
2022/12/20 04:11:38;;;;;;;61.22;29.60;;;4.40;61.30;;;;;;5015823;28;20044;-72
2022/12/20 04:14:04;;;;;;;72.05;31.67;;;4.50;61.30;;;;;;5031755;28;20041;-73
2022/12/20 04:16:30;;;;;;;66.78;31.55;;;4.50;61.30;;;;;;5035701;28;20041;-72
2022/12/20 04:18:57;;;;;;;63.72;29.42;;;4.50;61.30;;;;;;5035575;28;20553;-72
2022/12/20 04:21:25;;;;;;;79.60;34.20;;;4.60;61.30;;;;;;5034797;28;20045;-72
2022/12/20 04:23:51;;;;;;;68.55;31.77;;;4.60;61.20;;;;;;5035462;28;20476;-73
2022/12/20 04:26:18;;;;;;;69.30;32.33;;;4.60;61.10;;;;;;5035456;28;20098;-73
2022/12/20 04:28:44;;;;;;;68.25;30.80;;;4.60;61.20;;;;;;5035315;28;20037;-72
2022/12/20 04:31:10;;;;;;;67.70;31.25;;;4.60;61.20;;;;;;5035361;28;20094;-72
2022/12/20 04:33:39;;;;;;;64.63;29.65;;;4.70;61.20;;;;;;5053108;28;20519;-73
2022/12/20 04:36:05;;;;;;;70.72;31.40;;;4.70;61.10;;;;;;5052963;28;20115;-72
2022/12/20 04:38:34;;;;;;;74.38;31.13;;;4.70;61.10;;;;;;5035268;28;20040;-73
2022/12/20 04:41:00;;;;;;;69.95;31.55;;;4.70;61.10;;;;;;5035057;28;20037;-72
2022/12/20 04:43:26;;;;;;;68.35;31.55;;;4.70;61.10;;;;;;5033270;28;20044;-72
2022/12/20 04:45:56;;;;;;;68.47;31.67;;;4.70;61.00;;;;;;5035240;28;20033;-72
2022/12/20 04:48:27;;;;;;;67.68;29.52;;;4.80;61.00;;;;;;5053444;28;20384;-72
2022/12/20 04:50:55;;;;;;;66.05;29.95;;;4.80;60.90;;;;;;5035291;28;20029;-72
2022/12/20 04:56:09;;;;;;;63.17;30.67;;;4.80;60.80;;;;;;5052864;28;20045;-72
2022/12/20 04:58:35;;;;;;;64.22;30.00;;;4.80;60.70;;;;;;5035144;28;20365;-72
2022/12/20 05:01:03;;;;;;;63.03;30.42;;;4.80;60.70;;;;;;5035065;28;20033;-72
2022/12/20 05:03:32;;;;;;;60.20;30.20;;;4.80;60.70;;;;;;5030653;28;20048;-72
2022/12/20 05:06:00;;;;;;;64.28;29.00;;;4.90;60.80;;;;;;5015223;28;20029;-72
2022/12/20 05:08:26;;;;;;;63.40;28.83;;;4.90;60.70;;;;;;5015205;28;20327;-72
2022/12/20 05:10:52;;;;;;;65.55;30.85;;;4.90;60.70;;;;;;5032905;28;20152;-72
2022/12/20 05:13:18;;;;;;;62.88;28.95;;;4.90;60.70;;;;;;5019279;28;20033;-72
2022/12/20 05:15:49;;;;;;;64.38;29.88;;;4.90;60.70;;;;;;5018742;28;20045;-72
2022/12/20 05:18:15;;;;;;;58.63;27.17;;;4.90;60.70;;;;;;5037056;28;20063;-72
2022/12/20 05:20:40;;;;;;;63.15;30.65;;;5.00;60.70;;;;;;5018917;28;20120;-72
2022/12/20 05:28:38;;;;;;;69.80;30.38;;;5.00;60.40;;;;;;5046419;28;20056;-72
2022/12/20 05:31:04;;;;;;;68.38;31.63;;;5.00;60.40;;;;;;5038787;28;20036;-72
2022/12/20 05:33:30;;;;;;;69.57;31.60;;;5.00;60.30;;;;;;5056127;28;20049;-72
2022/12/20 05:35:59;;;;;;;76.80;33.40;;;5.00;60.30;;;;;;5038542;28;20043;-72
2022/12/20 05:38:24;;;;;;;64.03;29.92;;;5.00;60.20;;;;;;5038401;28;20037;-72
2022/12/20 05:40:50;;;;;;;71.30;30.92;;;5.00;60.20;;;;;;5038384;28;20029;-72
2022/12/20 05:43:18;;;;;;;72.30;32.15;;;5.00;60.20;;;;;;5027601;28;20200;-72
2022/12/20 05:45:51;;;;;;;69.90;31.13;;;5.00;60.20;;;;;;5041043;28;20029;-72
2022/12/20 05:48:24;;;;;;;67.15;29.55;;;4.90;60.20;;;;;;5037993;28;20037;-73
2022/12/20 05:50:50;;;;;;;67.70;30.85;;;5.00;60.30;;;;;;5038161;28;20472;-72
2022/12/20 05:53:16;;;;;;;72.93;31.17;;;4.90;60.20;;;;;;5038116;28;20033;-72
2022/12/20 05:55:49;;;;;;;73.38;33.70;;;4.90;60.30;;;;;;5056123;28;20033;-72
2022/12/20 05:58:16;;;;;;;71.80;31.48;;;4.90;60.20;;;;;;5037954;28;20393;-73
2022/12/20 06:00:43;;;;;;;68.05;30.33;;;4.90;60.20;;;;;;5038325;28;20099;-72
2022/12/20 06:03:10;;;;;;;68.63;30.50;;;4.90;60.20;;;;;;5037631;28;20052;-72
2022/12/20 06:05:39;;;;;;;70.40;33.65;;;4.90;60.20;;;;;;5038339;28;20037;-71
2022/12/20 06:08:06;;;;;;;69.70;32.13;;;4.90;60.10;;;;;;5037036;28;20041;-72
2022/12/20 06:10:33;;;;;;;66.50;30.08;;;4.90;60.30;;;;;;5054277;28;20037;-72
2022/12/20 06:13:03;;;;;;;69.32;30.05;;;4.90;60.30;;;;;;5037753;28;20132;-71
2022/12/20 06:15:29;;;;;;;63.78;28.88;;;4.90;60.30;;;;;;5035911;28;20068;-72
2022/12/20 06:17:58;;;;;;;58.70;26.70;;;5.00;60.40;;;;;;5031937;28;20037;-72
2022/12/20 06:20:24;;;;;;;75.32;34.88;;;4.90;60.30;;;;;;5035782;28;20083;-72
2022/12/20 06:22:52;;;;;;;91.75;38.30;;;5.00;60.50;;;;;;5037185;28;20033;-72
2022/12/20 06:25:18;;;;;;;71.38;33.97;;;5.00;60.40;;;;;;5037734;28;20033;-72
2022/12/20 06:27:44;;;;;;;80.50;34.38;;;5.00;60.30;;;;;;5037404;28;20489;-72
2022/12/20 06:30:11;;;;;;;78.18;34.30;;;5.00;60.10;;;;;;5035569;28;20041;-72
2022/12/20 06:32:38;;;;;;;70.95;33.53;;;5.00;60.10;;;;;;5037350;28;20037;-72
2022/12/20 06:35:04;;;;;;;73.60;34.15;;;5.00;60.20;;;;;;5054960;28;20080;-72
2022/12/20 06:37:31;;;;;;;80.20;35.95;;;5.00;60.20;;;;;;5055173;28;20037;-72
2022/12/20 06:39:57;;;;;;;72.47;33.08;;;5.10;60.20;;;;;;5037354;28;20487;-71
2022/12/20 06:42:23;;;;;;;69.90;31.73;;;5.10;60.10;;;;;;5036673;28;20064;-72
2022/12/20 06:44:51;;;;;;;73.95;32.88;;;5.10;60.10;;;;;;5054757;28;20542;-72
2022/12/20 06:47:20;;;;;;;67.63;30.80;;;5.00;60.00;;;;;;5020326;28;20041;-73
2022/12/20 06:49:46;;;;;;;72.18;31.50;;;5.10;60.10;;;;;;5035036;28;20034;-72
2022/12/20 06:52:12;;;;;;;74.53;32.63;;;5.10;60.10;;;;;;5016963;28;20041;-72
2022/12/20 06:54:38;;;;;;;70.43;32.42;;;5.10;60.00;;;;;;5017141;28;20029;-72
2022/12/20 06:57:05;;;;;;;68.55;31.50;;;5.10;60.00;;;;;;5016970;28;20449;-72
2022/12/20 06:59:31;;;;;;;72.05;32.97;;;5.10;60.00;;;;;;5016933;28;20033;-72
2022/12/20 07:01:57;;;;;;;71.35;32.60;;;5.10;59.90;;;;;;5016837;28;20026;-72
2022/12/20 07:04:23;;;;;;;78.65;33.85;;;5.10;59.80;;;;;;5016618;28;20056;-71
2022/12/20 07:06:51;;;;;;;70.38;31.38;;;5.10;59.80;;;;;;5034530;28;20041;-71
2022/12/20 07:09:17;;;;;;;81.10;33.72;;;5.10;60.00;;;;;;5034696;28;20046;-72
2022/12/20 07:11:43;;;;;;;74.75;33.35;;;5.10;59.90;;;;;;5016992;28;20040;-72
2022/12/20 07:14:09;;;;;;;72.65;30.98;;;5.00;60.60;;;;;;5016888;28;20037;-72
2022/12/20 07:16:36;;;;;;;71.20;31.67;;;5.00;59.90;;;;;;5043704;28;20053;-72
2022/12/20 07:19:02;;;;;;;73.43;32.90;;;5.00;59.90;;;;;;5036600;28;20132;-73
2022/12/20 07:21:28;;;;;;;76.32;33.75;;;5.00;59.90;;;;;;5054733;28;20132;-72
2022/12/20 07:23:55;;;;;;;73.00;33.17;;;5.00;60.00;;;;;;5054461;28;20417;-72
2022/12/20 07:26:21;;;;;;;75.05;32.92;;;5.10;59.90;;;;;;5036356;28;20472;-73
2022/12/20 07:28:46;;;;;;;73.25;32.63;;;5.00;59.90;;;;;;5036368;28;20044;-72
2022/12/20 07:31:15;;;;;;;77.47;32.65;;;5.00;59.90;;;;;;5035632;28;20043;-72
2022/12/20 07:33:41;;;;;;;74.25;33.08;;;5.00;59.90;;;;;;5035744;28;20148;-72
2022/12/20 07:36:10;;;;;;;74.25;33.28;;;5.00;59.90;;;;;;5036121;28;20500;-72
2022/12/20 07:38:36;;;;;;;70.72;32.58;;;5.00;59.80;;;;;;5036132;28;20039;-72
2022/12/20 07:41:12;;;;;;;67.97;31.95;;;5.00;59.80;;;;;;5036177;28;20132;-72
2022/12/20 07:43:38;;;;;;;68.63;32.25;;;5.00;60.00;;;;;;5041376;28;20037;-72
2022/12/20 07:46:06;;;;;;;74.30;31.70;;;5.10;60.10;;;;;;5039800;28;20029;-72
2022/12/20 07:48:33;;;;;;;73.43;32.78;;;5.10;60.00;;;;;;5036120;28;20603;-72
2022/12/20 07:51:05;;;;;;;78.35;32.85;;;5.10;59.80;;;;;;5052002;28;20116;-72
2022/12/20 07:53:34;;;;;;;79.63;35.17;;;5.10;59.70;;;;;;5050472;28;20061;-72
2022/12/20 07:56:01;;;;;;;81.90;37.45;;;5.10;59.60;;;;;;5053896;28;20056;-72
2022/12/20 07:58:30;;;;;;;77.93;34.67;;;5.10;59.70;;;;;;5035840;28;20029;-72
2022/12/20 08:00:57;;;;;;;70.82;32.47;;;5.10;59.70;;;;;;5027014;28;20120;-72
2022/12/20 08:03:30;;;;;;;83.43;36.05;;;5.10;59.80;;;;;;5015734;28;20092;-73
2022/12/20 08:05:59;;;;;;;71.35;31.38;;;5.10;59.70;;;;;;5016172;28;20033;-72
2022/12/20 08:08:25;;;;;;;71.75;33.20;;;5.20;59.90;;;;;;5015779;28;20037;-72
2022/12/20 08:10:52;;;;;;;76.50;33.03;;;5.20;59.80;;;;;;5016002;28;20048;-73
2022/12/20 08:13:18;;;;;;;71.45;33.35;;;5.20;59.80;;;;;;5015976;28;20037;-72
2022/12/20 08:15:47;;;;;;;71.38;31.98;;;5.30;59.90;;;;;;5018819;28;20033;-73
2022/12/20 08:18:12;;;;;;;73.47;34.63;;;5.30;59.90;;;;;;5015913;28;20440;-72
2022/12/20 08:20:38;;;;;;;72.30;32.13;;;5.40;59.80;;;;;;5015603;28;20037;-73
2022/12/20 08:23:05;;;;;;;70.70;31.48;;;5.40;59.70;;;;;;5017060;28;20409;-73
2022/12/20 08:25:33;;;;;;;85.53;39.40;;;5.50;59.70;;;;;;5034740;28;20033;-72
2022/12/20 08:28:01;;;;;;;77.03;34.38;;;5.50;59.70;;;;;;5035391;28;20037;-73
2022/12/20 08:30:27;;;;;;;79.03;33.97;;;5.60;59.70;;;;;;5047004;28;20025;-73
2022/12/20 08:32:54;;;;;;;75.70;33.72;;;5.60;59.50;;;;;;5033237;28;20045;-73
2022/12/20 08:35:21;;;;;;;76.63;33.45;;;5.60;59.20;;;;;;5015657;28;20124;-72
2022/12/20 08:37:49;;;;;;;70.22;31.20;;;5.70;58.90;;;;;;5015567;28;20041;-73
2022/12/20 08:40:18;;;;;;;74.75;34.45;;;5.70;58.80;;;;;;5015242;28;20036;-73
2022/12/20 08:42:44;;;;;;;73.30;32.90;;;5.70;58.80;;;;;;5033403;28;20091;-72
2022/12/20 08:45:11;;;;;;;72.47;33.90;;;5.70;58.80;;;;;;5016278;28;20029;-72
2022/12/20 08:47:37;;;;;;;72.55;31.70;;;5.70;58.80;;;;;;5019350;28;20037;-73
2022/12/20 08:50:04;;;;;;;67.18;30.15;;;5.70;58.80;;;;;;5037132;28;20121;-73
2022/12/20 08:52:30;;;;;;;70.15;32.83;;;5.80;58.70;;;;;;5028975;28;20044;-73
2022/12/20 08:54:55;;;;;;;72.43;32.20;;;5.80;58.50;;;;;;5040348;28;20038;-73
2022/12/20 08:57:21;;;;;;;66.50;30.52;;;5.80;58.40;;;;;;5019478;28;20049;-73
2022/12/20 08:59:47;;;;;;;76.18;31.20;;;5.80;58.20;;;;;;5019522;28;20033;-73
2022/12/20 09:02:13;;;;;;;64.38;29.35;;;5.70;57.90;;;;;;5037065;28;20500;-73
2022/12/20 09:04:39;;;;;;;74.75;31.25;;;5.70;58.00;;;;;;5018951;28;20045;-72
2022/12/20 09:07:07;;;;;;;68.00;30.20;;;5.70;58.00;;;;;;5019391;28;20048;-74
2022/12/20 09:09:33;;;;;;;68.93;29.75;;;5.60;58.10;;;;;;5019247;28;20382;-74
2022/12/20 09:11:59;;;;;;;69.82;31.45;;;5.60;58.20;;;;;;5036929;28;20091;-72
2022/12/20 09:14:25;;;;;;;72.07;30.02;;;5.60;58.30;;;;;;5019160;28;20040;-72
2022/12/20 09:16:53;;;;;;;73.85;30.42;;;5.70;58.30;;;;;;5019150;28;20128;-72
2022/12/20 09:19:19;;;;;;;70.70;30.15;;;5.70;58.30;;;;;;5037953;28;20108;-72
2022/12/20 09:21:45;;;;;;;67.97;29.27;;;5.70;58.40;;;;;;5018758;28;20064;-72
2022/12/20 09:24:10;;;;;;;66.75;29.90;;;5.80;58.40;;;;;;5026771;28;20469;-72
2022/12/20 09:26:37;;;;;;;63.78;29.38;;;5.90;58.50;;;;;;5022323;28;20049;-72
2022/12/20 09:29:04;;;;;;;68.10;31.30;;;5.90;58.30;;;;;;5037015;28;20397;-71
2022/12/20 09:31:30;;;;;;;67.55;29.92;;;6.00;58.10;;;;;;5038552;28;20033;-72
2022/12/20 09:33:57;;;;;;;65.00;28.73;;;6.10;58.00;;;;;;5038242;28;20029;-72
2022/12/20 09:36:25;;;;;;;59.42;27.40;;;6.10;58.10;;;;;;5038475;28;20395;-72
2022/12/20 09:38:51;;;;;;;57.97;26.88;;;6.20;58.10;;;;;;5047280;28;20091;-72
2022/12/20 09:41:40;;;;;;;68.88;29.60;;;6.30;58.00;;;;;;5018622;28;20037;-72
2022/12/20 09:44:33;;;;;;;67.47;29.50;;;6.40;57.70;;;;;;5036300;28;20037;-71
2022/12/20 09:47:11;;;;;;;72.95;30.60;;;6.40;57.30;;;;;;5018267;28;20098;-72
2022/12/20 09:49:42;;;;;;;63.45;29.13;;;6.50;57.10;;;;;;5018363;28;20034;-72
2022/12/20 09:52:48;;;;;;;67.60;29.35;;;6.50;56.80;;;;;;5036213;28;20034;-72
2022/12/20 09:55:32;;;;;;;71.38;30.92;;;6.60;56.70;;;;;;4957627;28;20419;-72
2022/12/20 09:58:10;;;;;;;65.85;30.40;;;6.50;56.40;;;;;;4974127;28;20070;-72
2022/12/20 10:00:44;;;;;;;62.40;29.25;;;6.60;56.50;;;;;;4958726;28;20174;-72
2022/12/20 10:03:25;;;;;;;77.60;32.75;;;6.60;56.40;;;;;;4955626;28;20051;-72
2022/12/20 10:05:53;;;;;;;73.15;31.63;;;6.60;56.50;;;;;;4955426;29;20075;-72
2022/12/20 10:08:33;;;;;;;70.80;31.92;;;6.60;56.30;;;;;;4955239;29;20039;-72
2022/12/20 10:11:26;;;;;;;68.85;30.27;;;6.50;55.90;;;;;;4955440;29;20035;-73
2022/12/20 10:14:26;;;;;;;64.80;29.55;;;6.50;56.10;;;;;;4955191;29;20074;-73
2022/12/20 10:17:03;;;;;;;63.88;29.75;;;6.50;56.10;;;;;;4955389;29;20444;-73
2022/12/20 10:19:55;;;;;;;76.57;29.55;;;6.50;56.20;;;;;;4955242;29;20035;-73
2022/12/20 10:22:45;;;;;;;66.85;29.70;;;6.50;56.40;;;;;;4955277;29;20495;-73
2022/12/20 10:25:17;;;;;;;76.78;29.95;;;6.60;56.30;;;;;;4945828;29;20035;-73
2022/12/20 10:27:45;;;;;;;63.42;28.90;;;6.50;56.00;;;;;;4928032;29;20482;-72
2022/12/20 10:30:20;;;;;;;69.38;30.25;;;6.50;56.00;;;;;;5021881;28;20133;-72
2022/12/20 10:32:51;;;;;;;65.20;30.60;;;6.50;56.10;;;;;;5000572;28;20077;-72
2022/12/20 10:35:20;;;;;;;64.38;30.65;;;6.50;56.00;;;;;;5017675;28;20044;-74
2022/12/20 10:38:11;;;;;;;65.30;28.15;;;6.50;55.90;;;;;;5017928;28;20038;-73
2022/12/20 10:40:54;;;;;;;73.40;30.27;;;6.50;56.20;;;;;;5017681;28;20035;-73
2022/12/20 10:43:23;;;;;;;72.43;30.13;;;6.50;56.20;;;;;;5017594;28;20061;-71
2022/12/20 10:46:06;;;;;;;60.88;28.92;;;6.40;56.10;;;;;;5021469;28;20084;-70
2022/12/20 10:48:34;;;;;;;88.00;30.63;;;6.50;56.20;;;;;;5010849;28;20128;-71
2022/12/20 10:51:02;;;;;;;57.55;27.63;;;6.50;56.10;;;;;;5027335;28;20040;-72
2022/12/20 10:53:30;;;;;;;75.38;30.23;;;6.50;56.10;;;;;;5022897;28;20052;-70
2022/12/20 10:56:26;;;;;;;77.57;28.48;;;6.50;56.40;;;;;;5006388;28;20045;-71
2022/12/20 10:58:57;;;;;;;68.07;27.15;;;6.60;56.70;;;;;;5019048;28;20025;-71
2022/12/20 11:01:44;;;;;;;63.85;29.35;;;6.70;56.80;;;;;;5016484;28;20108;-71
2022/12/20 11:04:40;;;;;;;64.35;28.50;;;6.90;56.70;;;;;;5022537;28;20148;-71
2022/12/20 11:07:25;;;;;;;85.07;30.83;;;7.00;56.60;;;;;;4968536;28;20498;-71
2022/12/20 11:09:55;;;;;;;75.75;30.35;;;7.20;56.10;;;;;;4952871;28;20042;-71
2022/12/20 11:12:21;;;;;;;77.80;32.05;;;7.30;55.80;;;;;;4972010;28;20042;-71
2022/12/20 11:14:48;;;;;;;80.43;31.15;;;7.30;55.40;;;;;;4975044;28;20423;-71
2022/12/20 11:17:34;;;;;;;72.00;28.30;;;7.40;55.50;;;;;;4958973;28;20447;-71
2022/12/20 11:20:25;;;;;;;71.82;28.95;;;7.40;55.80;;;;;;4974738;28;20525;-71
2022/12/20 11:23:09;;;;;;;84.80;30.00;;;7.50;55.50;;;;;;4981661;28;20035;-71
2022/12/20 11:26:12;;;;;;;78.13;30.88;;;7.70;55.60;;;;;;4953337;28;20039;-71
2022/12/20 11:28:55;;;;;;;86.13;31.02;;;7.80;55.50;;;;;;4941548;28;20074;-73
2022/12/20 11:31:53;;;;;;;66.10;28.13;;;7.90;55.30;;;;;;4972756;28;20031;-71
2022/12/20 11:34:52;;;;;;;71.65;31.75;;;8.10;55.40;;;;;;4967649;28;20558;-71
2022/12/20 11:37:24;;;;;;;72.75;32.05;;;8.20;54.90;;;;;;4960677;28;20074;-75
2022/12/20 11:40:04;;;;;;;68.00;27.33;;;8.40;54.70;;;;;;4972799;28;20037;-71
2022/12/20 11:42:59;;;;;;;66.72;29.85;;;8.40;54.60;;;;;;4977302;28;20050;-71
2022/12/20 11:45:36;;;;;;;77.05;29.23;;;8.60;54.30;;;;;;5043406;28;20045;-70
2022/12/20 11:48:08;;;;;;;59.20;28.00;;;8.60;53.90;;;;;;5021292;28;20132;-71
2022/12/20 11:50:57;;;;;;;69.82;28.52;;;8.70;53.90;;;;;;5034416;28;20041;-72
2022/12/20 11:53:35;;;;;;;94.88;33.65;;;8.80;53.70;;;;;;5016935;28;20041;-69
2022/12/20 11:56:29;;;;;;;71.18;31.10;;;8.80;53.40;;;;;;5033648;28;20034;-69
2022/12/20 11:58:59;;;;;;;;;;;8.90;53.30;;;;;;5016215;28;20034;-69
2022/12/20 12:01:38;;;;;;;67.10;30.08;;;8.90;54.20;;;;;;5015778;28;20000;-69
2022/12/20 12:04:15;;;;;;;80.88;35.08;;;8.90;52.80;;;;;;5015182;28;20497;-69
2022/12/20 12:07:11;;;;;;;68.05;29.08;;;8.90;52.70;;;;;;5032966;28;20570;-69
2022/12/20 12:09:59;;;;;;;94.18;31.65;;;8.90;52.80;;;;;;5030963;28;20088;-69
2022/12/20 12:12:41;;;;;;;70.13;28.70;;;8.90;52.50;;;;;;5015920;28;20037;-69
2022/12/20 12:15:21;;;;;;;60.28;27.45;;;8.90;52.40;;;;;;5033294;28;20099;-70
2022/12/20 12:18:12;;;;;;;64.80;27.48;;;8.80;52.20;;;;;;5033383;28;20045;-69
2022/12/20 12:20:55;;;;;;;60.92;27.52;;;8.80;52.30;;;;;;5032895;28;20116;-69
2022/12/20 12:23:50;;;;;;;70.63;27.83;;;8.80;52.30;;;;;;5039039;28;20037;-69
2022/12/20 12:26:21;;;;;;;53.88;23.95;;;8.70;52.30;;;;;;5000425;28;20438;-69
2022/12/20 12:28:54;;;;;;;73.95;31.00;;;8.70;52.50;;;;;;5053066;28;20100;-70
2022/12/20 12:31:38;;;;;;;66.55;28.35;;;8.70;52.50;;;;;;5053139;28;20116;-69
2022/12/20 12:34:25;;;;;;;60.38;28.25;;;8.60;53.00;;;;;;5053088;28;20353;-70
2022/12/20 12:37:14;;;;;;;75.70;30.30;;;8.60;52.40;;;;;;5016526;28;20038;-69
2022/12/20 12:39:57;;;;;;;63.40;28.00;;;8.60;52.50;;;;;;5032693;28;20038;-70
2022/12/20 12:42:44;;;;;;;73.80;27.90;;;8.60;52.60;;;;;;5026421;28;20041;-70
2022/12/20 12:45:21;;;;;;;74.88;28.52;;;8.50;52.50;;;;;;5032640;28;20438;-70
2022/12/20 12:47:55;;;;;;;65.82;28.60;;;8.50;52.50;;;;;;5015238;28;20401;-70
2022/12/20 12:50:29;;;;;;;55.65;25.85;;;8.50;52.70;;;;;;5032714;28;20040;-70
2022/12/20 12:53:26;;;;;;;67.30;27.08;;;8.50;52.80;;;;;;5033048;28;20038;-70
2022/12/20 12:55:53;;;;;;;68.78;29.27;;;8.50;52.90;;;;;;4962014;28;20502;-70
2022/12/20 12:58:22;;;;;;;65.82;29.23;;;8.50;52.70;;;;;;5033004;28;20035;-70
2022/12/20 13:01:02;;;;;;;60.03;25.70;;;8.50;52.60;;;;;;5046990;28;20116;-70
2022/12/20 13:03:38;;;;;;;71.38;27.70;;;8.40;53.20;;;;;;5034221;28;20045;-70
2022/12/20 13:06:24;;;;;;;73.53;28.77;;;8.40;52.90;;;;;;5052519;28;20041;-70
2022/12/20 13:09:21;;;;;;;63.75;28.67;;;8.40;52.70;;;;;;5034659;28;20041;-70
2022/12/20 13:11:47;;;;;;;60.78;27.55;;;8.40;52.80;;;;;;5034745;28;20505;-70
2022/12/20 13:14:26;;;;;;;66.22;28.20;;;8.40;52.90;;;;;;5034502;28;20033;-70